Date,TemperatureHighF,TemperatureAvgF,TemperatureLowF,DewpointHighF,DewpointAvgF,DewpointLowF,HumidityHigh,HumidityAvg,HumidityLow,PressureMaxIn,PressureMinIn,WindSpeedMaxMPH,WindSpeedAvgMPH,GustSpeedMaxMPH,PrecipitationSumIn
2012-5-25,80,77,73,74,72,70,91,83,77,30.05,30.02,4,1,0,0.02
2012-5-26,86,76,70,73,70,67,94,80,55,30.07,29.98,13,4,0,0.00
2012-5-27,80,77,73,76,73,70,93,87,80,30.06,29.97,7,3,0,0.00
2012-5-28,80,78,76,75,74,73,94,89,84,30.05,29.99,11,6,0,0.00
2012-5-29,80,78,74,75,74,72,92,88,81,30.01,29.80,15,6,17,0.10
2012-5-30,84,76,69,74,71,67,97,85,61,29.83,29.53,26,6,33,1.72
2012-5-31,84,77,68,74,69,62,90,78,48,29.90,29.82,8,4,10,0.00
2012-6-1,80,77,70,76,74,67,94,89,73,29.89,29.76,21,9,24,0.48
2012-6-2,82,74,69,72,67,60,98,78,50,29.89,29.75,8,2,11,0.00
2012-6-3,81,74,64,72,61,52,86,67,38,29.97,29.86,14,5,17,0.00
2012-6-4,77,74,70,72,69,68,93,86,74,29.86,29.68,9,5,13,0.16
2012-6-5,73,70,65,70,66,63,95,87,74,29.86,29.66,9,3,12,0.26
2012-6-6,72,68,64,66,64,61,94,85,70,29.90,29.83,12,5,17,0.31
2012-6-7,74,70,62,64,60,57,90,71,60,30.04,29.97,9,4,0,0.00
2012-6-8,78,72,63,66,63,60,90,74,63,30.05,29.98,9,3,0,0.00
2012-6-9,78,74,65,70,66,62,91,78,63,30.10,30.02,12,5,0,0.01
2012-6-10,78,77,76,72,69,67,87,77,71,30.17,30.06,10,6,0,0.00
2012-6-11,79,76,73,74,72,69,94,87,82,30.17,30.07,14,6,17,0.43
2012-6-12,80,76,72,75,73,70,95,91,84,30.07,29.88,13,6,16,0.55
2012-6-13,84,77,72,74,72,70,97,87,64,29.95,29.85,11,4,13,0.10
2012-6-14,81,74,67,71,65,58,95,74,48,30.09,29.95,10,4,14,0.07
2012-6-15,80,73,64,70,63,58,85,71,54,30.14,30.06,7,3,16,0.00
2012-6-16,77,72,63,68,64,57,83,76,66,30.19,30.11,6,2,0,0.00
2012-6-17,76,71,63,67,61,57,84,70,55,30.16,30.01,10,4,0,0.00
2012-6-18,78,74,64,69,65,62,93,75,59,30.12,30.03,9,3,0,0.00
2012-6-19,79,76,67,72,68,64,92,79,64,30.17,30.11,10,3,10,0.01
2012-6-20,81,77,71,73,70,67,93,80,63,30.17,30.09,8,4,11,0.00
2012-6-21,82,77,72,74,71,68,93,81,69,30.09,29.94,13,5,18,0.00
2012-6-22,81,77,71,74,70,68,93,81,68,29.97,29.88,14,7,18,0.00
2012-6-23,83,78,72,77,74,70,94,86,77,30.00,29.89,12,5,15,0.00
2012-6-24,82,79,76,77,76,74,95,89,85,30.01,29.90,10,4,11,0.00
2012-6-25,80,77,75,76,74,72,93,89,81,29.92,29.73,11,5,14,0.39
2012-6-26,79,75,71,76,65,57,94,74,55,29.83,29.65,9,4,16,0.01
2012-6-27,84,74,63,68,60,53,79,64,39,29.97,29.80,14,4,19,0.00
2012-6-28,86,76,66,73,66,57,91,73,38,30.04,29.93,15,6,17,0.00
2012-6-29,90,82,76,80,74,67,90,78,56,29.94,29.77,12,6,13,0.00
2012-6-30,90,83,78,83,78,75,92,86,73,29.90,29.78,14,5,15,0.00
2012-7-1,89,82,78,83,77,64,95,84,49,30.08,29.87,15,6,23,0.00
2012-7-2,92,83,75,75,70,63,79,65,45,30.06,29.90,14,4,16,0.00
2012-7-3,87,82,77,80,76,71,90,81,70,30.01,29.92,13,5,17,0.00
2012-7-4,87,83,77,80,77,74,92,83,73,30.02,29.91,11,6,15,0.00
2012-7-5,88,83,76,82,78,70,91,84,73,29.99,29.86,14,6,18,0.86
2012-7-6,91,84,79,80,77,71,93,81,56,29.98,29.90,13,6,18,0.00
2012-7-7,92,84,77,80,77,73,90,80,59,30.04,29.95,12,7,17,0.00
2012-7-8,94,85,80,81,77,72,88,78,50,30.01,29.87,15,9,19,0.00
2012-7-9,93,85,81,81,77,70,85,77,48,29.94,29.83,14,8,22,0.00
2012-7-10,86,78,73,80,73,70,95,86,74,30.04,29.90,16,3,20,0.59
2012-7-11,82,77,73,77,74,71,97,91,83,30.08,29.98,9,2,10,0.65
2012-7-12,82,79,73,78,75,71,97,88,76,30.13,30.04,10,3,11,0.63
2012-7-13,84,82,78,78,76,72,92,83,78,30.17,30.08,9,5,12,0.44
2012-7-14,84,82,78,77,76,74,90,81,75,30.21,30.12,10,6,13,0.13
2012-7-15,84,82,79,77,75,74,85,79,74,30.20,30.08,10,5,10,0.00
2012-7-16,85,80,76,78,75,73,91,83,73,30.11,29.98,8,3,13,0.00
2012-8-2,85,79,76,78,71,70,84,78,76,29.96,29.87,6,2,7,0.01
2012-8-3,85,80,74,78,74,70,93,82,62,30.07,29.94,11,4,15,0.01
2012-8-4,82,80,79,77,76,75,89,85,80,30.11,30.05,5,2,6,0.00
2012-8-5,83,81,78,78,76,74,92,85,79,30.20,30.11,11,5,0,0.00
2012-8-6,85,81,78,78,77,74,93,86,76,30.14,30.02,7,3,11,0.00
2012-8-7,83,79,76,78,76,73,95,90,81,30.04,29.97,14,4,15,0.33
2012-8-8,81,78,76,76,75,74,96,90,82,30.02,29.95,8,3,9,0.10
2012-8-9,83,79,72,78,75,70,94,86,78,29.99,29.88,10,4,14,0.01
2012-8-10,84,79,76,78,75,72,93,87,74,29.93,29.85,17,7,18,0.26
2012-8-11,84,79,72,78,74,70,94,86,73,29.96,29.89,15,7,17,1.35
2012-8-12,82,78,73,77,75,71,97,90,82,30.00,29.92,8,3,10,0.05
2012-8-13,85,80,76,80,77,75,96,89,81,30.03,29.93,10,4,12,0.01
2012-8-14,90,82,76,78,74,65,94,77,49,29.98,29.88,14,6,17,0.00
2012-8-15,90,83,79,80,76,71,93,80,57,29.95,29.87,10,5,13,0.01
2012-8-16,86,81,74,78,74,67,92,81,59,30.00,29.92,11,5,12,0.00
2012-8-17,85,79,74,78,74,70,93,85,75,29.98,29.83,15,4,18,0.02
2012-8-18,82,78,74,78,74,70,93,87,79,29.89,29.80,8,2,14,0.52
2012-8-19,84,79,74,80,75,71,96,89,76,29.88,29.82,11,3,13,0.08
2012-8-20,84,78,75,75,74,71,93,86,67,29.95,29.82,9,4,11,0.26
2012-8-21,81,77,74,75,73,71,96,88,79,30.03,29.91,8,2,8,0.04
2012-8-22,81,76,73,75,73,72,96,90,77,30.06,29.99,7,2,10,0.35
2012-8-23,80,74,71,75,72,69,98,93,81,30.09,30.02,10,2,13,1.64
2012-8-24,77,71,68,74,69,66,97,93,84,30.09,30.02,10,4,16,0.33
2012-8-25,82,74,68,68,67,65,94,81,59,30.11,30.04,7,2,10,0.01
2012-8-26,84,76,67,77,70,64,94,82,62,30.15,30.04,9,3,11,0.01
2012-8-27,84,80,75,80,76,74,96,90,83,30.08,30.00,12,3,16,0.00
2012-8-28,81,77,74,77,75,71,97,92,81,30.03,29.95,11,2,13,1.25
2012-8-29,84,77,74,77,75,72,97,93,78,30.01,29.91,9,3,11,0.84
2012-8-30,80,76,73,76,74,72,97,92,83,30.14,29.97,4,1,5,0.02
2012-8-31,83,79,73,78,75,72,98,89,79,30.22,30.11,8,3,10,0.00
2012-9-1,90,82,76,81,77,74,95,85,61,30.14,30.01,13,5,14,0.00
2012-9-2,90,82,77,81,78,75,93,86,65,30.04,29.92,11,5,17,0.00
2012-9-3,84,81,77,79,77,75,93,86,77,30.04,29.96,11,6,17,0.00
2012-9-4,82,81,79,76,74,72,86,80,71,30.02,29.93,9,7,12,0.00
2012-9-5,84,81,78,77,76,74,91,83,73,29.98,29.89,11,7,15,0.00
2012-9-6,86,81,77,79,76,73,93,85,65,29.97,29.88,12,5,15,0.00
2012-9-7,84,80,76,78,76,73,95,87,78,29.95,29.85,8,3,9,0.04
2012-9-8,85,81,77,80,77,73,95,87,74,29.86,29.73,18,7,22,0.06
2012-9-9,82,76,70,75,70,65,94,82,68,29.96,29.75,6,2,10,0.01
2012-9-10,84,73,63,65,60,53,92,67,35,30.12,29.95,5,2,8,0.00
2012-9-11,80,73,66,63,59,54,76,61,45,30.26,30.12,10,3,13,0.00
2012-9-12,79,73,63,68,61,57,80,67,55,30.30,30.23,11,2,14,0.00
2012-9-13,81,76,66,70,67,62,87,74,60,30.27,30.18,6,3,10,0.00
2012-9-14,79,75,68,72,69,66,93,82,69,30.20,30.10,10,3,11,0.00
2012-9-15,80,76,69,72,70,68,95,83,73,30.14,30.06,11,4,13,0.01
2012-9-16,82,78,70,74,70,66,91,78,67,30.11,30.03,7,2,11,0.00
2012-9-17,82,78,71,75,72,69,94,84,73,30.07,29.94,10,4,13,0.00
2012-9-18,83,79,75,78,74,71,92,85,78,29.94,29.74,21,11,25,0.30
2012-9-19,80,73,66,73,69,61,95,86,73,30.08,29.83,9,2,12,0.00
2012-9-20,76,70,65,66,63,60,86,78,67,30.11,30.02,6,2,8,0.00
2012-9-21,78,72,64,67,64,60,88,75,59,30.08,30.01,6,2,9,0.00
2012-9-22,79,74,67,71,68,64,91,81,71,30.04,29.95,11,4,16,0.00
2012-9-23,83,75,68,70,61,52,95,66,41,30.07,29.95,9,4,13,0.00
2012-9-24,76,70,60,60,56,50,89,64,46,30.17,30.06,12,3,16,0.00
2012-9-25,77,71,59,65,59,51,87,67,46,30.22,30.15,7,2,10,0.00
2012-9-26,78,73,62,68,65,60,91,76,65,30.21,30.14,11,4,12,0.00
2012-9-27,80,73,63,70,66,61,94,77,57,30.20,30.09,10,4,11,0.00
2012-9-28,83,75,66,72,69,64,94,82,61,30.10,29.99,8,3,11,0.00
2012-9-29,82,75,71,71,70,68,95,85,64,30.00,29.86,8,3,11,0.00
2012-10-4,83,78,73,73,71,70,89,80,68,30.21,30.14,6,2,7,0.00
2012-10-5,82,74,69,70,67,63,95,80,56,30.18,30.01,8,2,10,0.00
2012-10-6,80,74,66,71,68,64,94,83,66,30.02,29.88,9,3,12,0.00
2012-10-7,80,75,64,75,71,58,96,87,75,30.05,29.91,8,4,14,0.00
2012-10-8,67,60,53,62,56,52,96,88,82,30.12,30.00,7,3,12,0.26
2012-10-9,62,56,53,56,54,52,96,91,83,30.11,30.03,6,3,10,0.00
2012-10-10,74,62,52,62,56,51,97,83,62,30.12,29.98,9,3,12,0.00
2012-10-11,71,63,58,60,54,48,94,72,51,30.26,30.10,7,2,11,0.00
2012-10-12,74,64,54,61,55,50,87,74,52,30.25,30.13,6,1,9,0.00
2012-10-13,72,66,56,63,56,51,87,72,56,30.37,30.25,8,3,12,0.00
2012-10-14,78,69,58,68,62,52,94,81,63,30.29,30.05,9,1,12,0.00
2012-10-15,79,72,65,72,68,62,94,85,71,30.04,29.73,10,3,12,0.00
2012-10-16,70,63,54,62,52,46,83,68,45,29.94,29.82,6,2,11,0.00
2012-10-17,70,64,55,64,56,51,88,78,66,30.00,29.90,5,2,9,0.00
2012-10-18,76,72,70,71,68,62,95,85,72,29.92,29.79,9,3,13,0.00
2012-10-19,77,71,64,70,59,45,96,70,35,29.82,29.73,8,3,11,0.30
2012-10-20,74,66,56,55,50,44,85,60,36,29.92,29.78,9,4,15,0.00
2012-10-21,72,63,55,52,48,44,85,60,40,30.14,29.91,6,2,10,0.00
2012-10-22,70,62,52,55,49,44,85,65,45,30.22,30.13,6,1,7,0.00
2012-10-23,72,64,54,64,57,51,89,79,60,30.20,30.11,6,2,8,0.00
2012-10-24,75,68,59,68,64,57,96,86,71,30.17,30.08,8,2,10,0.00
2012-10-25,77,73,69,71,69,67,95,88,80,30.10,30.03,5,2,8,0.01
2012-10-26,75,71,66,68,65,58,90,81,67,30.03,29.77,9,4,15,0.00
2012-10-27,69,66,64,65,63,59,94,89,79,29.76,29.49,11,6,20,0.52
2012-10-28,69,65,60,60,56,53,80,73,61,29.56,29.49,10,5,15,0.00
2012-10-29,60,55,50,53,42,36,82,63,48,29.57,29.46,14,8,23,0.00
2012-10-30,57,52,48,43,38,35,74,61,49,29.69,29.47,12,7,16,0.00
2012-10-31,62,52,44,44,37,34,72,58,42,29.80,29.69,10,5,13,0.00
2012-11-1,62,52,43,41,34,30,74,52,31,29.89,29.76,10,5,14,0.00
2012-11-2,71,57,42,52,39,31,71,54,35,29.96,29.80,11,5,14,0.00
2012-11-3,61,56,46,53,44,37,82,65,45,30.11,29.93,4,1,7,0.00
2012-11-4,79,65,54,64,58,52,96,82,47,30.03,29.86,13,3,18,0.81
2012-11-5,62,54,47,52,45,42,95,75,49,30.06,29.92,4,0,7,0.15
2012-11-6,53,47,44,45,41,36,91,79,71,30.04,29.86,4,0,7,0.03
2012-11-7,57,47,39,43,39,35,87,75,50,29.93,29.81,6,1,9,0.00
2012-11-8,62,49,38,41,36,29,94,66,30,30.11,29.93,7,2,10,0.00
2012-11-9,58,50,38,47,38,32,83,65,41,30.27,30.10,3,0,5,0.00
2012-11-10,63,55,45,54,48,42,90,77,53,30.38,30.26,2,0,5,0.00
2012-11-11,68,60,51,63,57,48,95,89,83,30.45,30.36,6,0,9,0.00
2012-11-12,72,66,62,66,62,60,95,90,80,30.37,30.19,5,0,8,0.00
2012-11-13,70,62,49,65,58,47,95,87,75,30.30,30.14,6,1,12,0.00
2012-11-14,54,50,46,47,45,42,90,83,73,30.38,30.26,7,1,16,0.00
2012-11-15,52,47,43,50,46,41,96,94,84,30.30,30.15,6,1,11,0.61
2012-11-16,59,52,47,50,47,43,96,84,69,30.31,30.19,5,1,8,0.01
2012-11-17,56,51,44,49,44,38,85,79,75,30.35,30.27,6,1,12,0.00
2012-11-18,56,53,50,53,50,47,96,91,80,30.29,30.15,10,5,18,1.10
2012-11-19,61,56,53,54,52,50,92,85,77,30.17,30.07,9,4,16,0.02
2012-11-20,64,55,51,53,50,48,90,85,69,30.11,30.01,3,0,8,0.00
2012-11-21,62,53,46,48,45,39,94,77,58,30.11,30.03,7,1,12,0.00
2012-11-22,64,51,41,40,36,29,85,59,27,30.17,30.08,7,1,11,0.00
2012-11-23,65,51,39,52,41,33,81,69,38,30.15,29.89,6,1,7,0.00
2012-11-24,59,52,43,47,37,27,75,57,37,30.09,29.88,6,2,11,0.00
2012-11-25,52,44,33,44,32,24,92,65,45,30.20,30.08,2,0,6,0.00
2012-11-26,60,51,42,49,41,32,94,72,45,30.23,30.12,3,0,7,0.00
2012-11-27,61,52,46,53,45,34,95,77,48,30.19,30.07,4,0,6,0.28
2012-11-28,56,50,42,50,42,36,96,76,48,30.38,30.15,7,1,11,0.01
2012-11-29,56,47,39,43,38,34,87,72,51,30.47,30.36,1,0,4,0.00
2012-11-30,59,50,40,53,46,36,94,85,73,30.40,30.31,0,0,0,0.00
2012-12-1,63,55,47,55,51,46,96,87,68,30.39,30.30,0,0,0,0.01
2012-12-2,64,58,54,58,55,52,96,90,79,30.40,30.27,0,0,0,0.01
2012-12-3,70,59,51,61,57,50,97,92,74,30.32,30.23,4,0,4,0.01
2012-12-4,66,61,59,61,59,57,97,93,84,30.34,30.23,2,0,3,0.00
2012-12-5,74,63,56,60,58,52,94,83,47,30.23,30.08,7,1,9,0.00
2012-12-6,62,55,51,58,49,43,91,80,70,30.22,30.12,3,1,10,0.00
2012-12-7,62,57,50,60,54,45,95,89,78,30.13,29.97,5,1,8,0.00
2012-12-8,63,57,54,58,56,54,98,95,82,30.08,29.97,6,1,7,0.00
2012-12-9,67,61,54,63,59,53,97,93,86,30.14,29.98,2,0,3,0.00
2012-12-10,69,64,61,66,62,59,98,95,90,29.98,29.78,9,2,11,0.01
2012-12-11,71,65,62,67,62,59,98,90,73,30.07,29.77,8,2,11,0.01
2012-12-12,61,52,44,59,50,42,96,95,91,30.24,30.02,7,1,12,0.37
2012-12-13,50,45,42,46,43,41,96,92,84,30.30,30.12,8,2,20,0.07
2012-12-14,59,48,39,47,42,37,94,80,53,30.34,30.21,3,0,9,0.00
2012-12-15,58,52,45,57,49,40,97,87,80,30.24,30.07,2,0,3,0.05
2012-12-16,61,57,55,60,56,54,98,97,92,30.09,29.89,4,0,4,0.01
2012-12-17,65,62,59,63,61,58,98,95,90,29.89,29.70,6,0,12,0.40
2012-12-18,66,56,50,58,41,-100,96,68,41,29.96,29.72,11,-55,15,0.00
2012-12-19,67,55,46,52,42,37,88,64,38,30.11,29.95,7,2,12,0.01
2012-12-20,65,57,46,64,54,43,96,88,78,30.11,29.58,18,3,21,0.20
2012-12-21,64,46,43,61,28,-100,92,53,42,29.91,29.59,17,-25,24,0.00
2012-12-22,53,44,36,30,24,20,59,47,28,30.14,29.90,10,4,14,0.00
2012-12-23,53,45,34,44,35,28,80,69,56,30.19,30.07,2,0,5,0.00
2012-12-24,58,52,44,51,43,34,84,72,58,30.09,29.91,8,0,9,0.02
2012-12-25,58,50,46,53,43,-100,96,86,83,30.07,29.93,3,-48,8,0.17
2012-12-26,68,41,44,64,10,-100,97,58,58,29.97,29.46,14,-256,21,0.23
2012-12-27,54,45,38,40,36,33,85,71,52,30.05,29.74,10,4,14,0.00
2012-12-28,52,45,37,48,40,32,89,80,71,30.16,29.95,3,0,3,0.01
2012-12-29,56,48,44,51,39,-100,96,80,69,29.99,29.69,10,-44,16,0.57
2012-12-30,49,42,34,36,29,22,82,63,36,30.42,29.99,8,2,13,0.00
2012-12-31,53,43,31,48,35,26,88,73,45,30.43,30.17,4,0,6,0.00
2013-1-1,60,56,51,56,51,46,93,84,77,30.17,29.93,5,0,6,0.00